createdAt,value
2018-10-06T00:00:23.165Z,8.27
2018-10-06T00:02:54.511Z,11.03
2018-10-06T00:05:25.765Z,9.00
2018-10-06T00:07:56.762Z,9.13
2018-10-06T00:10:28.324Z,12.70
2018-10-06T00:12:59.725Z,8.70
2018-10-06T00:15:31.184Z,8.97
2018-10-06T00:18:02.448Z,8.40
2018-10-06T00:20:33.651Z,8.73
2018-10-06T00:23:04.963Z,8.33
2018-10-06T00:25:36.386Z,8.13
2018-10-06T00:28:07.896Z,8.40
2018-10-06T00:30:39.155Z,10.27
2018-10-06T00:33:10.435Z,12.70
2018-10-06T00:35:41.964Z,9.57
2018-10-06T00:38:13.444Z,11.00
2018-10-06T00:40:44.733Z,9.83
2018-10-06T00:43:15.781Z,8.40
2018-10-06T00:45:47.116Z,8.50
2018-10-06T00:48:18.376Z,7.73
2018-10-06T00:50:49.872Z,8.13
2018-10-06T00:53:21.319Z,8.50
2018-10-06T00:55:52.653Z,8.80
2018-10-06T00:58:24.119Z,7.43
2018-10-06T01:00:55.690Z,8.10
2018-10-06T01:03:27.016Z,7.67
2018-10-06T01:05:58.179Z,7.83
2018-10-06T01:08:29.685Z,8.43
2018-10-06T01:11:00.826Z,8.03
2018-10-06T01:13:31.916Z,8.80
2018-10-06T01:16:03.022Z,7.93
2018-10-06T01:18:34.418Z,7.83
2018-10-06T01:21:05.892Z,8.50
2018-10-06T01:23:37.394Z,8.27
2018-10-06T01:26:08.923Z,9.07
2018-10-06T01:28:40.015Z,8.50
2018-10-06T01:31:11.460Z,8.57
2018-10-06T01:33:42.845Z,8.40
2018-10-06T01:36:14.538Z,7.47
2018-10-06T01:38:46.058Z,7.73
2018-10-06T01:41:17.066Z,7.87
2018-10-06T01:43:48.507Z,8.30
2018-10-06T01:46:19.712Z,7.97
2018-10-06T01:48:51.103Z,8.23
2018-10-06T01:51:22.271Z,8.23
2018-10-06T01:53:53.516Z,8.13
2018-10-06T01:56:24.914Z,8.10
2018-10-06T01:58:56.463Z,8.07
2018-10-06T02:01:27.628Z,7.63
2018-10-06T02:03:58.963Z,7.90
2018-10-06T02:06:30.571Z,8.87
2018-10-06T02:09:01.885Z,7.77
2018-10-06T02:11:32.942Z,8.27
2018-10-06T02:14:04.631Z,8.97
2018-10-06T02:16:36.068Z,7.53
2018-10-06T02:19:07.407Z,7.43
2018-10-06T02:21:38.639Z,7.80
2018-10-06T02:24:09.779Z,7.90
2018-10-06T02:26:41.180Z,8.00
2018-10-06T02:29:12.850Z,7.57
2018-10-06T02:31:44.228Z,7.73
2018-10-06T02:34:15.703Z,7.47
2018-10-06T02:36:46.870Z,7.10
2018-10-06T02:39:18.203Z,6.30
2018-10-06T02:41:49.744Z,7.27
2018-10-06T02:44:21.050Z,8.07
2018-10-06T02:46:52.264Z,8.37
2018-10-06T02:49:23.674Z,7.20
2018-10-06T02:51:55.039Z,6.93
2018-10-06T02:54:26.480Z,7.37
2018-10-06T02:56:57.859Z,7.73
2018-10-06T02:59:29.057Z,7.47
2018-10-06T03:02:00.156Z,8.07
2018-10-06T03:04:31.501Z,7.37
2018-10-06T03:07:02.797Z,7.73
2018-10-06T03:09:34.120Z,7.10
2018-10-06T03:12:05.731Z,7.47
2018-10-06T03:14:36.991Z,7.47
2018-10-06T03:17:08.612Z,7.67
2018-10-06T03:19:39.671Z,7.47
2018-10-06T03:22:10.855Z,7.30
2018-10-06T03:24:42.348Z,7.90
2018-10-06T03:27:13.785Z,8.03
2018-10-06T03:29:44.943Z,7.33
2018-10-06T03:32:16.200Z,7.10
2018-10-06T03:34:47.623Z,7.40
2018-10-06T03:37:18.995Z,7.47
2018-10-06T03:39:50.212Z,7.77
2018-10-06T03:42:21.396Z,7.00
2018-10-06T03:44:52.769Z,7.50
2018-10-06T03:47:24.234Z,7.13
2018-10-06T03:49:55.608Z,7.93
2018-10-06T03:52:26.960Z,7.03
2018-10-06T03:54:58.703Z,9.90
2018-10-06T03:57:30.291Z,8.10
2018-10-06T04:00:01.584Z,7.30
2018-10-06T04:02:32.761Z,6.83
2018-10-06T04:05:04.033Z,6.97
2018-10-06T04:07:35.370Z,7.20
2018-10-06T04:10:06.643Z,7.40
2018-10-06T04:12:37.780Z,7.57
2018-10-06T04:15:09.324Z,7.43
2018-10-06T04:17:40.638Z,6.90
2018-10-06T04:20:12.119Z,7.47
2018-10-06T04:22:43.401Z,6.40
2018-10-06T04:25:14.964Z,7.77
2018-10-06T04:27:46.383Z,7.33
2018-10-06T04:30:18.021Z,7.90
2018-10-06T04:32:49.597Z,7.20
2018-10-06T04:35:21.081Z,7.50
2018-10-06T04:37:52.684Z,7.50
2018-10-06T04:40:23.845Z,7.33
2018-10-06T04:42:55.187Z,7.90
2018-10-06T04:45:26.683Z,9.20
2018-10-06T04:47:57.983Z,7.77
2018-10-06T04:50:29.508Z,8.13
2018-10-06T04:53:00.910Z,8.87
2018-10-06T04:55:32.412Z,8.50
2018-10-06T04:58:03.728Z,8.37
2018-10-06T05:00:35.206Z,9.30
2018-10-06T05:03:06.679Z,8.77
2018-10-06T05:05:37.933Z,8.73
2018-10-06T05:08:09.299Z,9.17
2018-10-06T05:10:40.794Z,18.67
2018-10-06T05:13:12.286Z,8.77
2018-10-06T05:15:43.608Z,9.27
2018-10-06T05:18:14.914Z,9.50
2018-10-06T05:20:46.436Z,9.40
2018-10-06T05:23:17.863Z,9.67
2018-10-06T05:25:49.096Z,9.30
2018-10-06T05:28:20.700Z,9.63
2018-10-06T05:30:51.868Z,9.97
2018-10-06T05:33:23.476Z,18.70
2018-10-06T05:35:54.915Z,20.20
2018-10-06T05:38:26.299Z,13.90
2018-10-06T05:40:57.441Z,12.50
2018-10-06T05:43:29.080Z,10.50
2018-10-06T05:46:00.223Z,11.60
2018-10-06T05:48:31.567Z,9.80
2018-10-06T05:51:03.359Z,24.53
2018-10-06T05:53:34.787Z,10.60
2018-10-06T05:56:06.137Z,10.80
2018-10-06T05:58:37.467Z,9.83
2018-10-06T06:01:08.868Z,18.53
2018-10-06T06:03:40.295Z,11.73
2018-10-06T06:06:11.889Z,10.30
2018-10-06T06:08:43.000Z,9.23
2018-10-06T06:11:14.476Z,11.23
2018-10-06T06:13:45.859Z,9.63
2018-10-06T06:16:17.264Z,8.90
2018-10-06T06:18:48.531Z,9.57
2018-10-06T06:21:19.945Z,9.20
2018-10-06T06:23:51.391Z,10.20
2018-10-06T06:26:22.919Z,9.10
2018-10-06T06:28:54.420Z,10.13
2018-10-06T06:31:25.864Z,11.83
2018-10-06T06:33:57.115Z,10.70
2018-10-06T06:36:28.634Z,10.77
2018-10-06T06:38:59.972Z,11.57
2018-10-06T06:41:31.387Z,10.27
2018-10-06T06:44:02.997Z,11.13
2018-10-06T06:46:34.129Z,12.10
2018-10-06T06:49:05.769Z,11.47
2018-10-06T06:51:37.341Z,13.30
2018-10-06T06:54:08.548Z,11.87
2018-10-06T06:56:39.757Z,12.10
2018-10-06T06:59:11.009Z,10.83
2018-10-06T07:01:42.223Z,11.50
2018-10-06T07:04:13.660Z,13.03
2018-10-06T07:06:44.967Z,12.47
2018-10-06T07:09:16.266Z,12.67
2018-10-06T07:11:47.615Z,13.77
2018-10-06T07:14:18.998Z,13.87
2018-10-06T07:16:50.155Z,13.50
2018-10-06T07:19:21.551Z,16.97
2018-10-06T07:21:52.718Z,13.10
2018-10-06T07:24:24.160Z,11.60
2018-10-06T07:26:55.884Z,12.77
2018-10-06T07:29:27.479Z,12.07
2018-10-06T07:31:58.889Z,11.90
2018-10-06T07:34:30.141Z,10.63
2018-10-06T07:37:01.721Z,12.40
2018-10-06T07:39:33.245Z,10.63
2018-10-06T07:42:04.812Z,12.47
2018-10-06T07:44:36.115Z,11.77
2018-10-06T07:47:07.606Z,14.77
2018-10-06T07:49:38.916Z,13.47
2018-10-06T07:52:10.099Z,11.37
2018-10-06T07:54:41.532Z,14.43
2018-10-06T07:57:13.109Z,20.83
2018-10-06T07:59:44.642Z,11.97
2018-10-06T08:02:16.796Z,12.43
2018-10-06T08:04:48.258Z,12.37
2018-10-06T08:07:19.780Z,14.03
2018-10-06T08:09:51.157Z,12.60
2018-10-06T08:12:22.687Z,12.23
2018-10-06T08:14:54.004Z,13.30
2018-10-06T08:17:25.398Z,14.57
2018-10-06T08:19:56.687Z,14.23
2018-10-06T08:22:28.132Z,16.77
2018-10-06T08:24:59.692Z,16.30
2018-10-06T08:27:31.265Z,17.60
2018-10-06T08:30:02.943Z,16.57
2018-10-06T08:32:34.379Z,17.55
2018-10-06T08:35:06.053Z,18.67
2018-10-06T08:37:37.508Z,18.80
2018-10-06T08:40:09.208Z,20.03
2018-10-06T08:42:41.168Z,19.13
2018-10-06T08:45:12.890Z,19.57
2018-10-06T08:47:44.985Z,22.03
2018-10-06T08:50:16.679Z,22.22
2018-10-06T08:52:48.451Z,20.70
2018-10-06T08:55:20.877Z,20.52
2018-10-06T08:57:52.384Z,22.30
2018-10-06T09:00:24.542Z,20.77
2018-10-06T09:03:00.374Z,22.43
2018-10-06T09:05:31.934Z,22.83
2018-10-06T09:08:03.112Z,22.57
2018-10-06T09:10:34.363Z,23.18
2018-10-06T09:13:05.773Z,23.22
2018-10-06T09:15:37.224Z,22.87
2018-10-06T09:18:08.520Z,25.17
2018-10-06T09:20:40.273Z,25.20
2018-10-06T09:23:11.529Z,23.77
2018-10-06T09:25:43.078Z,26.87
2018-10-06T09:28:14.393Z,23.53
2018-10-06T09:30:45.863Z,29.30
2018-10-06T09:33:17.425Z,23.83
2018-10-06T09:35:49.085Z,22.52
2018-10-06T09:38:20.472Z,24.77
2018-10-06T09:40:52.166Z,22.73
2018-10-06T09:43:23.673Z,23.63
2018-10-06T09:45:55.013Z,24.55
2018-10-06T09:48:26.927Z,22.63
2018-10-06T09:50:58.591Z,22.97
2018-10-06T09:53:30.001Z,21.82
2018-10-06T09:56:01.308Z,24.23
2018-10-06T09:58:32.501Z,23.73
2018-10-06T10:01:08.854Z,23.17
2018-10-06T10:03:45.419Z,22.37
2018-10-06T10:06:16.913Z,23.60
2018-10-06T10:08:48.332Z,24.07
2018-10-06T10:11:19.751Z,22.70
2018-10-06T10:13:51.176Z,22.60
2018-10-06T10:16:22.552Z,23.45
2018-10-06T10:18:54.037Z,23.90
2018-10-06T10:21:25.510Z,24.07
2018-10-06T10:23:56.811Z,28.40
2018-10-06T10:26:28.106Z,21.80
2018-10-06T10:28:59.463Z,22.13
2018-10-06T10:31:30.939Z,22.48
2018-10-06T10:34:02.123Z,22.37
2018-10-06T10:36:33.545Z,21.50
2018-10-06T10:39:05.590Z,22.00
2018-10-06T10:41:37.080Z,21.65
2018-10-06T10:44:08.866Z,21.48
2018-10-06T10:46:40.469Z,21.53
2018-10-06T10:49:11.509Z,21.97
2018-10-06T10:51:43.070Z,21.00
2018-10-06T10:54:14.507Z,22.93
2018-10-06T10:56:45.862Z,21.12
2018-10-06T10:59:17.350Z,20.48
2018-10-06T11:01:48.795Z,20.85
2018-10-06T11:04:20.101Z,20.68
2018-10-06T11:06:51.615Z,19.27
2018-10-06T11:09:22.845Z,18.33
2018-10-06T11:11:54.321Z,17.03
2018-10-06T11:14:25.643Z,17.87
2018-10-06T11:16:57.333Z,18.33
2018-10-06T11:19:28.669Z,16.23
2018-10-06T11:22:00.064Z,15.97
2018-10-06T11:24:31.491Z,15.93
2018-10-06T11:27:02.970Z,15.58
2018-10-06T11:29:34.314Z,15.93
2018-10-06T11:32:05.935Z,15.47
2018-10-06T11:34:37.116Z,14.73
2018-10-06T11:37:08.564Z,15.17
2018-10-06T11:39:39.877Z,15.03
2018-10-06T11:42:11.454Z,15.33
2018-10-06T11:44:42.971Z,14.07
2018-10-06T11:47:14.216Z,13.70
2018-10-06T11:49:45.589Z,14.57
2018-10-06T11:52:17.474Z,14.37
2018-10-06T11:54:48.709Z,14.17
2018-10-06T11:57:20.050Z,14.83
2018-10-06T11:59:51.636Z,13.40
2018-10-06T12:02:22.903Z,13.25
2018-10-06T12:04:54.363Z,13.10
2018-10-06T12:07:25.714Z,13.30
2018-10-06T12:09:57.269Z,12.63
2018-10-06T12:12:28.809Z,12.05
2018-10-06T12:15:00.452Z,12.90
2018-10-06T12:17:31.795Z,11.68
2018-10-06T12:20:03.481Z,12.10
2018-10-06T12:22:35.141Z,11.00
2018-10-06T12:25:07.007Z,11.23
2018-10-06T12:27:38.398Z,11.57
2018-10-06T12:30:09.303Z,10.73
2018-10-06T12:32:40.532Z,10.90
2018-10-06T12:35:12.195Z,10.30
2018-10-06T12:37:43.343Z,10.50
2018-10-06T12:40:14.682Z,10.50
2018-10-06T12:42:46.079Z,9.90
2018-10-06T12:45:17.470Z,9.80
2018-10-06T12:47:48.874Z,9.87
2018-10-06T12:50:20.476Z,9.83
2018-10-06T12:52:51.957Z,10.37
2018-10-06T12:55:23.289Z,8.93
2018-10-06T12:57:54.573Z,9.30
2018-10-06T13:00:26.041Z,9.37
2018-10-06T13:02:57.667Z,9.57
2018-10-06T13:05:28.908Z,8.87
2018-10-06T13:08:00.504Z,9.03
2018-10-06T13:10:31.990Z,8.40
2018-10-06T13:13:03.547Z,9.47
2018-10-06T13:15:35.148Z,9.28
2018-10-06T13:18:06.569Z,9.43
2018-10-06T13:20:38.167Z,9.20
2018-10-06T13:23:09.796Z,9.43
2018-10-06T13:25:41.357Z,9.20
2018-10-06T13:28:12.546Z,9.10
2018-10-06T13:30:43.954Z,8.67
2018-10-06T13:33:15.204Z,10.27
2018-10-06T13:35:46.601Z,10.03
2018-10-06T13:38:18.301Z,9.30
2018-10-06T13:40:49.674Z,9.53
2018-10-06T13:43:21.135Z,8.97
2018-10-06T13:45:52.634Z,9.40
2018-10-06T13:48:24.065Z,9.43
2018-10-06T13:50:55.813Z,10.03
2018-10-06T13:53:27.128Z,9.97
2018-10-06T13:55:58.513Z,10.23
2018-10-06T13:58:30.332Z,9.50
2018-10-06T14:01:01.560Z,9.70
2018-10-06T14:03:32.966Z,13.50
2018-10-06T14:06:04.681Z,11.27
2018-10-06T14:08:36.325Z,9.93
2018-10-06T14:11:08.131Z,9.27
2018-10-06T14:13:39.521Z,14.33
2018-10-06T14:16:11.280Z,9.53
2018-10-06T14:18:42.772Z,10.10
2018-10-06T14:21:14.240Z,8.93
2018-10-06T14:23:45.465Z,9.50
2018-10-06T14:26:16.925Z,8.87
2018-10-06T14:28:48.291Z,9.07
2018-10-06T14:31:19.836Z,8.23
2018-10-06T14:33:51.234Z,8.17
2018-10-06T14:36:22.708Z,8.37
2018-10-06T14:38:53.901Z,8.50
2018-10-06T14:41:25.828Z,8.83
2018-10-06T14:43:57.507Z,9.07
2018-10-06T14:46:28.922Z,9.07
2018-10-06T14:49:00.008Z,8.80
2018-10-06T14:51:31.180Z,9.07
2018-10-06T14:54:02.824Z,8.90
2018-10-06T14:56:34.098Z,9.57
2018-10-06T14:59:05.452Z,11.20
2018-10-06T15:01:36.734Z,16.60
2018-10-06T15:04:08.380Z,10.13
2018-10-06T15:06:39.655Z,15.23
2018-10-06T15:09:11.933Z,27.63
2018-10-06T15:11:43.755Z,25.93
2018-10-06T15:14:15.056Z,22.27
2018-10-06T15:16:46.597Z,24.43
2018-10-06T15:19:17.974Z,12.40
2018-10-06T15:21:49.572Z,24.33
2018-10-06T15:24:20.908Z,10.43
2018-10-06T15:26:52.664Z,11.83
2018-10-06T15:29:24.073Z,10.70
2018-10-06T15:31:55.407Z,9.70
2018-10-06T15:34:27.061Z,9.47
2018-10-06T15:36:58.235Z,10.13
2018-10-06T15:39:29.694Z,8.73
2018-10-06T15:42:01.295Z,9.07
2018-10-06T15:44:32.722Z,9.57
2018-10-06T15:47:03.926Z,9.23
2018-10-06T15:49:35.619Z,9.90
2018-10-06T15:52:07.379Z,11.73
2018-10-06T15:54:39.044Z,11.07
2018-10-06T15:57:10.322Z,9.90
2018-10-06T15:59:41.605Z,10.10
2018-10-06T16:02:13.239Z,9.03
2018-10-06T16:04:44.603Z,8.90
2018-10-06T16:07:15.908Z,9.17
2018-10-06T16:09:47.223Z,10.43
2018-10-06T16:12:18.696Z,10.50
2018-10-06T16:14:50.003Z,9.80
2018-10-06T16:17:21.237Z,9.03
2018-10-06T16:19:52.665Z,8.53
2018-10-06T16:22:23.989Z,8.97
2018-10-06T16:24:55.503Z,9.07
2018-10-06T16:27:27.143Z,9.40
2018-10-06T16:29:58.603Z,9.27
2018-10-06T16:32:29.875Z,9.53
2018-10-06T16:35:01.402Z,9.50
2018-10-06T16:37:32.704Z,9.03
2018-10-06T16:40:04.093Z,11.00
2018-10-06T16:42:35.366Z,8.57
2018-10-06T16:45:06.994Z,9.77
2018-10-06T16:47:38.271Z,9.57
2018-10-06T16:50:10.268Z,24.43
2018-10-06T16:52:41.731Z,13.43
2018-10-06T16:55:13.264Z,17.43
2018-10-06T16:57:44.616Z,17.67
2018-10-06T17:00:16.062Z,14.87
2018-10-06T17:02:47.218Z,14.17
2018-10-06T17:05:18.660Z,11.77
2018-10-06T17:07:49.835Z,10.27
2018-10-06T17:10:21.057Z,10.07
2018-10-06T17:12:52.622Z,10.83
2018-10-06T17:15:23.950Z,12.23
2018-10-06T17:17:55.193Z,12.17
2018-10-06T17:20:26.797Z,12.30
2018-10-06T17:22:58.262Z,11.53
2018-10-06T17:25:29.782Z,13.47
2018-10-06T17:28:01.010Z,14.23
2018-10-06T17:30:32.376Z,24.43
2018-10-06T17:33:04.051Z,14.27
2018-10-06T17:35:35.542Z,16.00
2018-10-06T17:38:06.955Z,18.43
2018-10-06T17:40:38.295Z,16.70
2018-10-06T17:43:09.788Z,29.00
2018-10-06T17:45:41.280Z,34.13
2018-10-06T17:48:12.690Z,24.13
2018-10-06T17:50:44.064Z,15.60
2018-10-06T17:53:15.425Z,16.60
2018-10-06T17:55:46.798Z,16.70
2018-10-06T17:58:18.316Z,23.97
2018-10-06T18:00:49.394Z,17.87
2018-10-06T18:03:21.095Z,17.83
2018-10-06T18:05:52.291Z,16.00
2018-10-06T18:08:23.693Z,23.73
2018-10-06T18:10:55.429Z,16.33
2018-10-06T18:13:26.885Z,13.63
2018-10-06T18:15:58.373Z,14.50
2018-10-06T18:18:29.761Z,13.90
2018-10-06T18:21:01.854Z,14.80
2018-10-06T18:23:33.449Z,16.03
2018-10-06T18:26:04.893Z,14.53
2018-10-06T18:28:36.584Z,15.03
2018-10-06T18:31:08.139Z,16.90
2018-10-06T18:33:39.657Z,16.57
2018-10-06T18:36:11.288Z,16.03
2018-10-06T18:38:42.716Z,49.47
2018-10-06T18:41:14.159Z,83.73
2018-10-06T18:43:45.995Z,38.67
2018-10-06T18:46:17.464Z,30.70
2018-10-06T18:48:48.820Z,25.37
2018-10-06T18:51:20.417Z,19.70
2018-10-06T18:53:51.633Z,16.90
2018-10-06T18:56:24.287Z,20.00
2018-10-06T18:58:55.918Z,19.10
2018-10-06T19:01:27.253Z,18.90
2018-10-06T19:03:58.722Z,19.50
2018-10-06T19:06:30.362Z,18.23
2018-10-06T19:09:01.826Z,17.90
2018-10-06T19:11:33.261Z,18.27
2018-10-06T19:14:04.878Z,18.47
2018-10-06T19:16:36.376Z,19.97
2018-10-06T19:19:08.175Z,20.47
2018-10-06T19:21:39.725Z,43.30
2018-10-06T19:24:11.185Z,22.47
2018-10-06T19:26:42.590Z,24.33
2018-10-06T19:29:14.186Z,18.70
2018-10-06T19:31:45.492Z,47.07
2018-10-06T19:34:16.801Z,50.30
2018-10-06T19:36:48.351Z,29.90
2018-10-06T19:39:20.050Z,23.00
2018-10-06T19:41:51.648Z,20.20
2018-10-06T19:44:23.221Z,19.83
2018-10-06T19:46:54.776Z,21.83
2018-10-06T19:49:26.039Z,23.27
2018-10-06T19:51:57.652Z,22.30
2018-10-06T19:54:29.430Z,22.23
2018-10-06T19:57:01.216Z,21.80
2018-10-06T19:59:32.796Z,21.33
2018-10-06T20:02:04.555Z,19.97
2018-10-06T20:04:36.379Z,23.03
2018-10-06T20:07:08.966Z,22.77
2018-10-06T20:09:40.352Z,21.37
2018-10-06T20:12:11.853Z,20.60
2018-10-06T20:14:43.346Z,23.13
2018-10-06T20:17:15.051Z,33.33
2018-10-06T20:19:46.433Z,29.47
2018-10-06T20:22:17.970Z,21.63
2018-10-06T20:24:49.096Z,21.90
2018-10-06T20:27:20.557Z,22.30
2018-10-06T20:29:51.948Z,26.83
2018-10-06T20:32:23.403Z,27.97
2018-10-06T20:34:55.011Z,23.23
2018-10-06T20:37:26.537Z,29.13
2018-10-06T20:39:57.859Z,22.60
2018-10-06T20:42:29.497Z,20.50
2018-10-06T20:45:00.991Z,19.60
2018-10-06T20:47:32.264Z,19.03
2018-10-06T20:50:03.629Z,19.27
2018-10-06T20:52:35.100Z,17.77
2018-10-06T20:55:06.661Z,18.03
2018-10-06T20:57:37.783Z,17.80
2018-10-06T21:00:09.948Z,18.77
2018-10-06T21:02:41.519Z,25.07
2018-10-06T21:05:13.086Z,23.80
2018-10-06T21:07:44.478Z,26.07
2018-10-06T21:10:16.023Z,20.87
2018-10-06T21:12:47.388Z,35.70
2018-10-06T21:15:18.725Z,19.00
2018-10-06T21:17:50.239Z,18.40
2018-10-06T21:20:21.640Z,19.40
2018-10-06T21:22:53.120Z,19.87
2018-10-06T21:25:24.515Z,18.93
2018-10-06T21:27:56.013Z,18.93
2018-10-06T21:30:27.543Z,34.93
2018-10-06T21:32:59.029Z,22.40
2018-10-06T21:35:30.092Z,29.77
2018-10-06T21:38:01.788Z,20.53
2018-10-06T21:40:32.930Z,19.43
2018-10-06T21:43:04.212Z,19.77
2018-10-06T21:45:35.661Z,19.87
2018-10-06T21:48:07.269Z,19.90
2018-10-06T21:50:40.089Z,28.23
2018-10-06T21:53:15.125Z,19.53
2018-10-06T21:55:47.028Z,19.20
2018-10-06T22:01:13.338Z,18.67
2018-10-06T22:03:44.821Z,21.50
2018-10-06T22:06:16.016Z,20.20
2018-10-06T22:08:51.267Z,18.93
2018-10-06T22:11:22.917Z,19.97
2018-10-06T22:13:54.186Z,19.57
2018-10-06T22:16:26.218Z,18.40
2018-10-06T22:19:03.269Z,18.70
2018-10-06T22:21:49.504Z,19.43
2018-10-06T22:24:20.871Z,19.67
2018-10-06T22:26:51.964Z,18.50
2018-10-06T22:29:23.448Z,19.93
2018-10-06T22:31:54.911Z,20.13
2018-10-06T22:34:26.224Z,19.07
2018-10-06T22:36:57.640Z,27.07
2018-10-06T22:39:29.120Z,29.07
2018-10-06T22:42:00.614Z,21.07
2018-10-06T22:44:31.804Z,18.43
2018-10-06T22:47:03.165Z,32.13
2018-10-06T22:49:34.530Z,20.47
2018-10-06T22:52:05.895Z,18.60
2018-10-06T22:54:37.505Z,24.77
2018-10-06T22:57:09.031Z,21.73
2018-10-06T22:59:40.391Z,29.03
2018-10-06T23:02:11.816Z,18.87
2018-10-06T23:04:43.239Z,21.00
2018-10-06T23:07:14.877Z,19.63
2018-10-06T23:09:46.269Z,21.03
2018-10-06T23:12:17.460Z,20.13
2018-10-06T23:14:49.212Z,19.40
2018-10-06T23:17:20.768Z,19.13
2018-10-06T23:19:52.049Z,19.07
2018-10-06T23:22:23.440Z,18.63
2018-10-06T23:24:54.792Z,19.30
2018-10-06T23:27:26.310Z,19.77
2018-10-06T23:29:57.764Z,21.20
2018-10-06T23:32:29.552Z,19.47
2018-10-06T23:35:01.018Z,19.50
2018-10-06T23:37:32.572Z,19.30
2018-10-06T23:40:04.008Z,19.90
2018-10-06T23:42:35.470Z,19.57
2018-10-06T23:45:07.007Z,19.93
2018-10-06T23:47:38.684Z,19.10
2018-10-06T23:50:10.138Z,19.70
2018-10-06T23:52:41.301Z,19.83
2018-10-06T23:55:12.507Z,19.90
2018-10-06T23:57:43.581Z,21.07
